createdAt,value
2023-01-13T00:00:07.021Z,53.89
2023-01-13T00:03:13.121Z,52.98
2023-01-13T00:06:21.587Z,53.06
2023-01-13T00:09:23.160Z,53.08
2023-01-13T00:12:24.701Z,53.06
2023-01-13T00:15:26.264Z,53.56
2023-01-13T00:18:28.335Z,53.54
2023-01-13T00:21:29.838Z,53.57
2023-01-13T00:24:31.460Z,53.01
2023-01-13T00:27:33.586Z,54.54
2023-01-13T00:30:38.484Z,55.54
2023-01-13T00:33:40.502Z,56.47
2023-01-13T00:36:42.031Z,56.52
2023-01-13T00:39:43.656Z,56.97
2023-01-13T00:43:03.729Z,57.40
2023-01-13T00:46:07.807Z,56.70
2023-01-13T00:49:09.360Z,57.22
2023-01-13T00:52:12.090Z,56.54
2023-01-13T00:55:13.645Z,56.45
2023-01-13T00:58:15.443Z,56.12
2023-01-13T01:01:19.635Z,55.87
2023-01-13T01:04:21.249Z,55.58
2023-01-13T01:07:22.775Z,55.27
2023-01-13T01:10:24.341Z,56.02
2023-01-13T01:13:25.867Z,55.96
2023-01-13T01:16:30.384Z,55.77
2023-01-13T01:19:32.037Z,56.17
2023-01-13T01:22:33.638Z,56.55
2023-01-13T01:25:35.132Z,56.27
2023-01-13T01:28:36.760Z,56.45
2023-01-13T01:31:38.367Z,56.45
2023-01-13T01:34:39.932Z,56.09
2023-01-13T01:37:41.444Z,56.46
2023-01-13T01:40:42.967Z,56.07
2023-01-13T01:44:08.976Z,56.94
2023-01-13T01:47:14.398Z,56.19
2023-01-13T01:50:17.441Z,56.24
2023-01-13T01:53:24.135Z,56.72
2023-01-13T01:56:25.760Z,57.08
2023-01-13T01:59:32.516Z,57.75
2023-01-13T02:02:34.330Z,58.16
2023-01-13T02:05:36.473Z,58.07
2023-01-13T02:08:40.283Z,57.79
2023-01-13T02:12:00.358Z,57.58
2023-01-13T02:15:09.073Z,57.24
2023-01-13T02:18:32.464Z,56.29
2023-01-13T02:21:51.106Z,56.29
2023-01-13T02:25:39.359Z,56.87
2023-01-13T02:29:25.771Z,57.09
2023-01-13T02:32:47.195Z,56.67
2023-01-13T02:36:01.421Z,56.90
2023-01-13T02:39:14.030Z,56.74
2023-01-13T02:42:44.302Z,56.82
2023-01-13T02:45:57.478Z,57.25
2023-01-13T02:49:04.889Z,57.18
2023-01-13T02:52:12.299Z,57.08
2023-01-13T02:55:18.701Z,57.81
2023-01-13T02:58:25.101Z,57.37
2023-01-13T03:01:27.014Z,57.20
2023-01-13T03:04:46.670Z,57.59
2023-01-13T03:08:09.172Z,57.42
2023-01-13T03:11:14.328Z,57.68
2023-01-13T03:14:30.367Z,57.73
2023-01-13T03:17:43.909Z,57.24
2023-01-13T03:21:03.059Z,58.22
2023-01-13T03:24:16.984Z,57.44
2023-01-13T03:27:25.561Z,58.07
2023-01-13T03:30:38.811Z,59.02
2023-01-13T03:33:51.387Z,58.70
2023-01-13T03:36:54.988Z,58.95
2023-01-13T03:40:03.834Z,58.56
2023-01-13T03:43:30.387Z,58.46
2023-01-13T03:46:42.317Z,59.06
2023-01-13T03:50:10.010Z,58.06
2023-01-13T03:53:18.640Z,58.87
2023-01-13T03:56:27.317Z,58.21
2023-01-13T03:59:37.942Z,58.94
2023-01-13T04:02:52.203Z,59.99
2023-01-13T04:05:59.848Z,60.00
2023-01-13T04:09:33.299Z,60.28
2023-01-13T04:13:01.101Z,59.29
2023-01-13T04:16:05.674Z,59.25
2023-01-13T04:19:07.165Z,59.38
2023-01-13T04:22:08.645Z,58.24
2023-01-13T04:25:11.451Z,58.96
2023-01-13T04:28:13.868Z,59.56
2023-01-13T04:31:15.375Z,59.81
2023-01-13T04:34:16.866Z,59.30
2023-01-13T04:37:18.517Z,61.52
2023-01-13T04:40:19.941Z,62.15
2023-01-13T04:43:21.399Z,62.85
2023-01-13T04:46:22.904Z,62.44
2023-01-13T04:49:24.435Z,62.45
2023-01-13T04:52:25.931Z,62.06
2023-01-13T04:55:27.957Z,61.67
2023-01-13T04:58:29.434Z,61.28
2023-01-13T05:01:31.075Z,61.88
2023-01-13T05:04:32.553Z,61.43
2023-01-13T05:07:34.009Z,61.12
2023-01-13T05:10:35.461Z,60.88
2023-01-13T05:13:55.605Z,60.74
2023-01-13T05:17:06.170Z,60.44
2023-01-13T05:20:08.755Z,60.76
2023-01-13T05:23:28.911Z,60.26
2023-01-13T05:26:30.303Z,60.31
2023-01-13T05:29:31.684Z,59.79
2023-01-13T05:32:33.256Z,59.90
2023-01-13T05:35:34.702Z,59.44
2023-01-13T05:38:36.150Z,59.55
2023-01-13T05:41:56.310Z,59.90
2023-01-13T05:44:57.751Z,59.64
2023-01-13T05:47:59.168Z,60.23
2023-01-13T05:51:01.800Z,60.36
2023-01-13T05:54:03.552Z,59.42
2023-01-13T05:57:04.960Z,60.39
2023-01-13T06:00:07.129Z,60.72
2023-01-13T06:03:16.099Z,60.07
2023-01-13T06:06:17.673Z,59.77
2023-01-13T06:09:20.966Z,59.38
2023-01-13T06:12:22.395Z,60.15
2023-01-13T06:15:24.463Z,59.68
2023-01-13T06:18:26.447Z,60.28
2023-01-13T06:21:27.842Z,59.59
2023-01-13T06:24:29.346Z,60.02
2023-01-13T06:27:31.058Z,59.85
2023-01-13T06:30:40.017Z,60.05
2023-01-13T06:33:49.303Z,60.39
2023-01-13T06:36:53.722Z,60.05
2023-01-13T06:39:58.624Z,60.37
2023-01-13T06:43:16.659Z,59.45
2023-01-13T06:46:18.743Z,60.53
2023-01-13T06:49:21.732Z,60.72
2023-01-13T06:52:23.484Z,59.69
2023-01-13T06:55:25.292Z,60.28
2023-01-13T06:58:26.821Z,60.25
2023-01-13T07:01:28.356Z,60.76
2023-01-13T07:04:29.860Z,60.55
2023-01-13T07:07:32.615Z,60.67
2023-01-13T07:10:34.865Z,61.13
2023-01-13T07:13:55.071Z,60.19
2023-01-13T07:16:56.555Z,61.94
2023-01-13T07:19:58.004Z,63.96
2023-01-13T07:22:59.415Z,65.19
2023-01-13T07:26:01.170Z,67.13
2023-01-13T07:29:02.645Z,68.01
2023-01-13T07:32:04.340Z,70.07
2023-01-13T07:35:06.308Z,70.45
2023-01-13T07:38:08.364Z,70.72
2023-01-13T07:41:31.655Z,71.17
2023-01-13T07:44:33.447Z,70.47
2023-01-13T07:47:34.923Z,70.62
2023-01-13T07:50:36.407Z,70.93
2023-01-13T07:53:38.789Z,70.95
2023-01-13T07:56:40.093Z,71.60
2023-01-13T07:59:41.713Z,70.99
2023-01-13T08:02:43.251Z,71.29
2023-01-13T08:05:44.754Z,71.46
2023-01-13T08:08:46.322Z,71.21
2023-01-13T08:12:07.727Z,70.98
2023-01-13T08:15:10.127Z,71.28
2023-01-13T08:18:11.858Z,70.31
2023-01-13T08:21:14.595Z,70.92
2023-01-13T08:24:16.024Z,71.56
2023-01-13T08:27:17.550Z,72.36
2023-01-13T08:30:19.257Z,75.04
2023-01-13T08:33:21.000Z,74.56
2023-01-13T08:36:22.541Z,72.90
2023-01-13T08:39:25.097Z,72.40
2023-01-13T08:42:27.713Z,72.87
2023-01-13T08:45:29.292Z,72.39
2023-01-13T08:48:31.635Z,72.30
2023-01-13T08:51:33.803Z,72.09
2023-01-13T08:54:38.553Z,72.57
2023-01-13T08:57:40.185Z,72.37
2023-01-13T09:00:42.205Z,73.01
2023-01-13T09:03:43.930Z,72.30
2023-01-13T09:06:46.204Z,72.03
2023-01-13T09:09:47.924Z,72.44
2023-01-13T09:13:08.133Z,73.34
2023-01-13T09:16:09.586Z,73.77
2023-01-13T09:19:11.045Z,72.37
2023-01-13T09:22:18.307Z,73.36
2023-01-13T09:25:19.817Z,72.66
2023-01-13T09:28:21.214Z,72.41
2023-01-13T09:31:22.620Z,72.25
2023-01-13T09:34:43.173Z,72.04
2023-01-13T09:37:44.629Z,72.26
2023-01-13T09:40:48.895Z,71.95
2023-01-13T09:43:56.723Z,72.27
2023-01-13T09:47:04.032Z,72.03
2023-01-13T09:50:22.227Z,72.51
2023-01-13T09:53:34.140Z,72.38
2023-01-13T09:56:35.882Z,71.82
2023-01-13T09:59:38.192Z,71.66
2023-01-13T10:03:08.267Z,71.91
2023-01-13T10:06:27.895Z,71.45
2023-01-13T10:09:51.384Z,70.81
2023-01-13T10:13:11.517Z,71.17
2023-01-13T10:16:46.557Z,71.31
2023-01-13T10:19:54.343Z,72.73
2023-01-13T10:23:14.293Z,73.68
2023-01-13T10:26:26.840Z,73.55
2023-01-13T10:29:30.111Z,73.27
2023-01-13T10:32:31.630Z,72.21
2023-01-13T10:35:56.661Z,70.68
2023-01-13T10:39:09.071Z,71.21
2023-01-13T10:42:16.860Z,69.59
2023-01-13T10:45:25.139Z,69.59
2023-01-13T10:48:57.072Z,69.38
2023-01-13T10:51:58.939Z,68.17
2023-01-13T10:55:01.223Z,68.15
2023-01-13T10:58:20.947Z,67.90
2023-01-13T11:01:27.274Z,68.00
2023-01-13T11:05:03.322Z,68.40
2023-01-13T11:08:05.107Z,67.68
2023-01-13T11:11:26.160Z,67.94
2023-01-13T11:14:42.153Z,67.38
2023-01-13T11:17:53.557Z,65.84
2023-01-13T11:20:56.628Z,65.21
2023-01-13T11:24:10.705Z,64.97
2023-01-13T11:27:39.843Z,64.45
2023-01-13T11:30:54.189Z,65.49
2023-01-13T11:34:23.657Z,63.25
2023-01-13T11:37:38.028Z,62.82
2023-01-13T11:40:46.895Z,61.35
2023-01-13T11:43:59.133Z,61.10
2023-01-13T11:47:01.271Z,60.68
2023-01-13T11:50:04.061Z,61.14
2023-01-13T11:53:29.055Z,60.56
2023-01-13T11:56:52.629Z,60.90
2023-01-13T12:00:18.153Z,58.69
2023-01-13T12:03:44.487Z,60.08
2023-01-13T12:06:49.339Z,60.06
2023-01-13T12:09:50.665Z,60.61
2023-01-13T12:13:20.727Z,59.53
2023-01-13T12:16:31.727Z,59.76
2023-01-13T12:19:33.292Z,59.93
2023-01-13T12:22:36.989Z,59.57
2023-01-13T12:25:46.387Z,58.77
2023-01-13T12:29:00.636Z,58.50
2023-01-13T12:32:05.049Z,58.67
2023-01-13T12:35:25.857Z,59.87
2023-01-13T12:38:34.481Z,58.64
2023-01-13T12:42:10.425Z,59.75
2023-01-13T12:45:11.795Z,62.41
2023-01-13T12:48:52.874Z,61.96
2023-01-13T12:51:54.552Z,63.03
2023-01-13T12:54:55.907Z,63.04
2023-01-13T12:58:06.068Z,63.01
2023-01-13T13:01:13.365Z,63.46
2023-01-13T13:04:20.520Z,63.45
2023-01-13T13:07:30.730Z,63.79
2023-01-13T13:10:37.458Z,64.43
2023-01-13T13:13:47.303Z,64.77
2023-01-13T13:16:51.738Z,65.57
2023-01-13T13:19:53.652Z,65.44
2023-01-13T13:22:55.095Z,65.13
2023-01-13T13:26:33.739Z,65.80
2023-01-13T13:29:47.783Z,64.94
2023-01-13T13:33:39.235Z,63.36
2023-01-13T13:37:03.621Z,63.50
2023-01-13T13:40:28.960Z,62.33
2023-01-13T13:43:59.330Z,61.24
2023-01-13T13:47:03.551Z,59.22
2023-01-13T13:50:14.350Z,58.33
2023-01-13T13:53:19.564Z,56.72
2023-01-13T13:56:28.077Z,56.17
2023-01-13T13:59:30.798Z,54.83
2023-01-13T14:02:36.917Z,53.83
2023-01-13T14:05:38.422Z,54.60
2023-01-13T14:08:46.596Z,56.28
2023-01-13T14:12:15.620Z,55.09
2023-01-13T14:15:33.461Z,55.04
2023-01-13T14:18:48.092Z,55.12
2023-01-13T14:21:49.540Z,55.44
2023-01-13T14:24:55.699Z,53.89
2023-01-13T14:28:00.140Z,54.35
2023-01-13T14:31:02.220Z,54.73
2023-01-13T14:34:28.785Z,54.98
2023-01-13T14:37:41.603Z,54.97
2023-01-13T14:40:45.758Z,55.12
2023-01-13T14:43:48.950Z,54.29
2023-01-13T14:46:53.183Z,54.90
2023-01-13T14:50:02.146Z,54.41
2023-01-13T14:53:05.086Z,54.71
2023-01-13T14:56:39.994Z,55.58
2023-01-13T14:59:48.598Z,55.73
2023-01-13T15:02:53.692Z,55.25
2023-01-13T15:05:57.744Z,55.27
2023-01-13T15:08:59.164Z,55.21
2023-01-13T15:12:15.680Z,54.60
2023-01-13T15:15:39.152Z,54.02
2023-01-13T15:18:41.285Z,54.67
2023-01-13T15:21:42.708Z,54.51
2023-01-13T15:24:44.218Z,55.24
2023-01-13T15:27:50.540Z,54.95
2023-01-13T15:30:55.537Z,55.73
2023-01-13T15:33:58.663Z,56.62
2023-01-13T15:37:00.086Z,54.79
2023-01-13T15:40:01.579Z,55.37
2023-01-13T15:43:21.797Z,56.20
2023-01-13T15:46:38.487Z,54.08
2023-01-13T15:49:46.163Z,54.83
2023-01-13T15:52:47.590Z,55.28
2023-01-13T15:55:55.293Z,54.71
2023-01-13T15:58:57.164Z,54.87
2023-01-13T16:01:58.551Z,55.77
2023-01-13T16:05:00.045Z,56.91
2023-01-13T16:08:01.518Z,59.27
2023-01-13T16:11:03.402Z,60.83
2023-01-13T16:14:04.827Z,60.89
2023-01-13T16:17:21.857Z,61.64
2023-01-13T16:20:23.683Z,61.96
2023-01-13T16:23:25.137Z,63.78
2023-01-13T16:26:32.584Z,65.36
2023-01-13T16:29:34.012Z,61.72
2023-01-13T16:32:35.391Z,60.84
2023-01-13T16:35:36.829Z,61.82
2023-01-13T16:38:58.190Z,63.96
2023-01-13T16:41:59.569Z,64.63
2023-01-13T16:45:08.396Z,64.93
2023-01-13T16:48:19.473Z,65.53
2023-01-13T16:51:22.373Z,67.27
2023-01-13T16:54:23.757Z,66.96
2023-01-13T16:57:25.159Z,66.67
2023-01-13T17:00:26.836Z,66.91
2023-01-13T17:03:29.822Z,67.23
2023-01-13T17:06:39.319Z,68.11
2023-01-13T17:09:40.781Z,67.84
2023-01-13T17:12:42.214Z,67.96
2023-01-13T17:15:45.051Z,68.54
2023-01-13T17:18:48.186Z,67.91
2023-01-13T17:21:51.055Z,68.42
2023-01-13T17:24:52.511Z,68.88
2023-01-13T17:27:53.928Z,69.23
2023-01-13T17:30:55.495Z,68.98
2023-01-13T17:33:57.095Z,69.90
2023-01-13T17:36:58.589Z,70.43
2023-01-13T17:40:00.743Z,69.55
2023-01-13T17:43:02.216Z,68.87
2023-01-13T17:46:08.696Z,68.73
2023-01-13T17:49:15.323Z,68.74
2023-01-13T17:52:16.775Z,68.98
2023-01-13T17:55:18.212Z,69.15
2023-01-13T17:58:21.446Z,68.55
2023-01-13T18:01:22.950Z,68.90
2023-01-13T18:04:28.893Z,68.57
2023-01-13T18:07:30.354Z,69.20
2023-01-13T18:10:33.010Z,68.69
2023-01-13T18:13:35.188Z,68.42
2023-01-13T18:16:39.793Z,68.79
2023-01-13T18:19:59.994Z,68.82
2023-01-13T18:23:20.267Z,68.01
2023-01-13T18:26:40.012Z,68.06
2023-01-13T18:29:42.459Z,67.30
2023-01-13T18:32:43.906Z,67.16
2023-01-13T18:35:45.298Z,67.50
2023-01-13T18:38:48.360Z,67.87
2023-01-13T18:42:08.271Z,67.49
2023-01-13T18:45:10.689Z,66.55
2023-01-13T18:48:12.231Z,67.94
2023-01-13T18:51:13.646Z,67.45
2023-01-13T18:54:15.185Z,66.78
2023-01-13T18:57:16.991Z,67.96
2023-01-13T19:00:20.377Z,67.89
2023-01-13T19:03:29.929Z,67.35
2023-01-13T19:06:33.787Z,66.28
2023-01-13T19:09:35.297Z,65.90
2023-01-13T19:12:36.825Z,66.30
2023-01-13T19:15:38.283Z,66.18
2023-01-13T19:18:41.032Z,66.08
2023-01-13T19:21:42.440Z,66.08
2023-01-13T19:24:43.832Z,66.14
2023-01-13T19:27:45.345Z,66.74
2023-01-13T19:30:46.862Z,65.96
2023-01-13T19:33:48.316Z,66.03
2023-01-13T19:36:51.802Z,65.90
2023-01-13T19:39:53.256Z,65.77
2023-01-13T19:43:13.202Z,65.86
2023-01-13T19:46:14.759Z,65.29
2023-01-13T19:49:16.261Z,66.12
2023-01-13T19:52:17.704Z,65.65
2023-01-13T19:55:19.738Z,65.13
2023-01-13T19:58:23.978Z,64.96
2023-01-13T20:01:31.643Z,64.74
2023-01-13T20:04:39.028Z,64.74
2023-01-13T20:07:40.416Z,65.04
2023-01-13T20:10:45.033Z,64.27
2023-01-13T20:13:46.499Z,64.06
2023-01-13T20:16:47.976Z,64.67
2023-01-13T20:19:49.409Z,64.50
2023-01-13T20:22:51.046Z,64.09
2023-01-13T20:25:52.517Z,64.61
2023-01-13T20:28:54.014Z,64.17
2023-01-13T20:31:55.736Z,64.01
2023-01-13T20:34:57.151Z,65.13
2023-01-13T20:37:58.562Z,65.49
2023-01-13T20:41:01.566Z,64.15
2023-01-13T20:44:02.961Z,65.07
2023-01-13T20:47:05.032Z,64.30
2023-01-13T20:50:07.124Z,64.56
2023-01-13T20:53:08.841Z,64.47
2023-01-13T20:56:10.236Z,65.21
2023-01-13T20:59:11.636Z,64.50
2023-01-13T21:02:15.127Z,64.52
2023-01-13T21:05:16.649Z,64.33
2023-01-13T21:08:18.093Z,64.78
2023-01-13T21:11:39.817Z,63.81
2023-01-13T21:14:59.708Z,62.92
2023-01-13T21:18:19.548Z,64.62
2023-01-13T21:21:21.049Z,63.92
2023-01-13T21:24:23.606Z,63.42
2023-01-13T21:27:25.667Z,62.84
2023-01-13T21:30:27.095Z,63.00
2023-01-13T21:33:29.811Z,62.08
2023-01-13T21:36:31.473Z,62.84
2023-01-13T21:39:32.889Z,61.47
2023-01-13T21:42:53.024Z,61.41
2023-01-13T21:46:12.833Z,61.09
2023-01-13T21:49:14.356Z,60.98
2023-01-13T21:52:16.303Z,60.72
2023-01-13T21:55:29.194Z,60.47
2023-01-13T21:58:30.715Z,60.50
2023-01-13T22:01:32.245Z,60.47
2023-01-13T22:04:33.799Z,60.55
2023-01-13T22:07:36.229Z,60.93
2023-01-13T22:10:56.831Z,60.19
2023-01-13T22:14:09.606Z,60.71
2023-01-13T22:17:14.292Z,60.71
2023-01-13T22:20:16.780Z,61.02
2023-01-13T22:23:20.072Z,61.81
2023-01-13T22:26:21.480Z,61.47
2023-01-13T22:29:22.974Z,62.16
2023-01-13T22:32:24.532Z,62.61
2023-01-13T22:35:25.937Z,62.02
2023-01-13T22:38:27.366Z,61.67
2023-01-13T22:41:28.899Z,62.18
2023-01-13T22:44:30.413Z,63.31
2023-01-13T22:47:33.007Z,63.43
2023-01-13T22:50:34.421Z,63.75
2023-01-13T22:53:36.481Z,64.19
2023-01-13T22:56:38.282Z,63.74
2023-01-13T22:59:39.697Z,64.92
2023-01-13T23:02:41.213Z,65.54
2023-01-13T23:05:42.890Z,65.58
2023-01-13T23:08:45.117Z,66.15
2023-01-13T23:11:47.844Z,65.80
2023-01-13T23:14:49.358Z,65.71
2023-01-13T23:17:51.465Z,66.02
2023-01-13T23:20:52.850Z,65.91
2023-01-13T23:23:54.890Z,65.98
2023-01-13T23:26:56.317Z,65.54
2023-01-13T23:29:57.729Z,66.10
2023-01-13T23:32:59.217Z,66.39
2023-01-13T23:36:03.203Z,67.42
2023-01-13T23:39:04.606Z,66.61
2023-01-13T23:42:06.106Z,66.19
2023-01-13T23:45:08.324Z,66.59
2023-01-13T23:48:09.846Z,65.98
2023-01-13T23:51:13.020Z,66.70
2023-01-13T23:54:14.434Z,66.97
2023-01-13T23:57:15.811Z,65.84
